createdAt,value
2018-12-19T00:01:46.062Z,49.30
2018-12-19T00:04:16.081Z,48.33
2018-12-19T00:06:46.042Z,46.92
2018-12-19T00:09:13.950Z,49.53
2018-12-19T00:11:41.922Z,51.75
2018-12-19T00:14:09.838Z,44.98
2018-12-19T00:16:37.765Z,57.30
2018-12-19T00:19:05.725Z,46.98
2018-12-19T00:21:33.657Z,54.38
2018-12-19T00:24:01.552Z,53.17
2018-12-19T00:26:29.534Z,42.93
2018-12-19T00:28:59.513Z,49.45
2018-12-19T00:31:29.518Z,50.88
2018-12-19T00:33:59.473Z,44.30
2018-12-19T00:36:27.388Z,47.15
2018-12-19T00:38:56.484Z,43.75
2018-12-19T00:41:24.397Z,43.05
2018-12-19T00:43:52.326Z,45.28
2018-12-19T00:46:20.303Z,50.25
2018-12-19T00:48:48.279Z,56.10
2018-12-19T00:51:16.213Z,52.90
2018-12-19T00:53:44.108Z,53.40
2018-12-19T00:56:12.017Z,50.63
2018-12-19T00:58:39.962Z,47.70
2018-12-19T01:01:07.866Z,58.60
2018-12-19T01:03:35.810Z,52.50
2018-12-19T01:06:03.814Z,53.05
2018-12-19T01:08:31.767Z,48.15
2018-12-19T01:10:59.721Z,46.77
2018-12-19T01:13:27.671Z,47.67
2018-12-19T01:15:55.599Z,48.40
2018-12-19T01:18:23.518Z,50.90
2018-12-19T01:20:51.421Z,49.35
2018-12-19T01:23:19.322Z,54.48
2018-12-19T01:25:47.274Z,48.05
2018-12-19T01:28:15.192Z,44.25
2018-12-19T01:30:43.238Z,56.58
2018-12-19T01:33:11.125Z,45.48
2018-12-19T01:35:40.098Z,44.95
2018-12-19T01:38:08.013Z,52.58
2018-12-19T01:40:35.973Z,46.55
2018-12-19T01:43:03.947Z,60.63
2018-12-19T01:45:31.826Z,47.95
2018-12-19T01:48:00.777Z,52.80
2018-12-19T01:50:28.694Z,51.25
2018-12-19T01:52:56.612Z,49.05
2018-12-19T01:55:24.542Z,47.43
2018-12-19T01:57:59.208Z,52.45
2018-12-19T02:00:31.951Z,40.85
2018-12-19T02:02:59.965Z,45.75
2018-12-19T02:05:27.917Z,50.80
2018-12-19T02:07:55.873Z,40.80
2018-12-19T02:10:23.837Z,52.17
2018-12-19T02:12:51.804Z,49.48
2018-12-19T02:15:19.724Z,46.10
2018-12-19T02:17:47.626Z,48.52
2018-12-19T02:20:15.551Z,46.68
2018-12-19T02:22:43.484Z,53.73
2018-12-19T02:25:11.428Z,56.23
2018-12-19T02:27:39.391Z,49.10
2018-12-19T02:30:07.368Z,46.98
2018-12-19T02:32:35.285Z,46.98
2018-12-19T02:35:03.385Z,47.13
2018-12-19T02:37:31.308Z,43.17
2018-12-19T02:39:59.271Z,43.38
2018-12-19T02:42:27.203Z,50.98
2018-12-19T02:44:55.188Z,46.40
2018-12-19T02:47:23.119Z,55.25
2018-12-19T02:49:51.038Z,52.50
2018-12-19T02:52:18.946Z,55.78
2018-12-19T02:54:48.021Z,60.43
2018-12-19T02:57:15.953Z,50.30
2018-12-19T02:59:43.868Z,50.80
2018-12-19T03:02:11.846Z,46.50
2018-12-19T03:04:39.758Z,57.75
2018-12-19T03:07:08.736Z,63.87
2018-12-19T03:09:42.803Z,55.40
2018-12-19T03:12:06.615Z,57.35
2018-12-19T03:14:34.535Z,58.38
2018-12-19T03:17:02.519Z,59.38
2018-12-19T03:19:30.471Z,52.65
2018-12-19T03:21:58.402Z,56.28
2018-12-19T03:24:26.400Z,54.60
2018-12-19T03:26:54.328Z,57.90
2018-12-19T03:29:22.222Z,57.00
2018-12-19T03:31:50.161Z,60.80
2018-12-19T03:34:18.112Z,64.90
2018-12-19T03:36:46.071Z,54.33
2018-12-19T03:39:20.877Z,63.63
2018-12-19T03:41:48.940Z,62.05
2018-12-19T03:44:16.879Z,54.58
2018-12-19T03:46:44.902Z,56.58
2018-12-19T03:49:12.867Z,56.77
2018-12-19T03:51:41.326Z,55.50
2018-12-19T03:54:09.279Z,58.33
2018-12-19T03:56:37.181Z,60.45
2018-12-19T03:59:05.095Z,48.05
2018-12-19T04:01:33.050Z,57.88
2018-12-19T04:04:00.944Z,54.50
2018-12-19T04:06:28.863Z,49.38
2018-12-19T04:08:56.806Z,55.95
2018-12-19T04:11:24.718Z,46.88
2018-12-19T04:13:52.686Z,50.58
2018-12-19T04:16:20.683Z,47.05
2018-12-19T04:18:48.640Z,75.17
2018-12-19T04:21:16.570Z,47.73
2018-12-19T04:23:44.498Z,43.60
2018-12-19T04:26:12.418Z,52.13
2018-12-19T04:28:40.362Z,43.98
2018-12-19T04:31:08.327Z,51.75
2018-12-19T04:33:37.393Z,48.85
2018-12-19T04:36:05.463Z,44.88
2018-12-19T04:38:33.554Z,46.02
2018-12-19T04:41:01.484Z,38.85
2018-12-19T04:43:29.467Z,39.35
2018-12-19T04:45:57.442Z,40.40
2018-12-19T04:48:25.362Z,43.33
2018-12-19T04:50:53.281Z,44.73
2018-12-19T04:53:21.182Z,50.48
2018-12-19T04:55:49.101Z,44.25
2018-12-19T04:58:17.072Z,45.25
2018-12-19T05:00:44.995Z,43.38
2018-12-19T05:03:20.946Z,45.78
2018-12-19T05:05:49.035Z,42.60
2018-12-19T05:08:16.993Z,38.95
2018-12-19T05:10:44.944Z,40.48
2018-12-19T05:13:12.897Z,43.87
2018-12-19T05:15:40.924Z,35.38
2018-12-19T05:18:08.854Z,40.70
2018-12-19T05:20:36.786Z,42.67
2018-12-19T05:23:04.751Z,38.65
2018-12-19T05:25:32.675Z,37.05
2018-12-19T05:28:00.649Z,43.87
2018-12-19T05:30:28.593Z,49.00
2018-12-19T05:33:03.482Z,49.20
2018-12-19T05:35:31.434Z,41.83
2018-12-19T05:37:59.375Z,42.00
2018-12-19T05:40:27.278Z,49.00
2018-12-19T05:42:55.226Z,47.35
2018-12-19T05:45:23.176Z,48.25
2018-12-19T05:47:51.236Z,54.60
2018-12-19T05:50:21.902Z,56.10
2018-12-19T05:52:49.854Z,44.15
2018-12-19T05:55:17.837Z,49.40
2018-12-19T05:57:45.786Z,43.78
2018-12-19T06:00:13.952Z,51.13
2018-12-19T06:02:41.916Z,48.98
2018-12-19T06:05:09.922Z,58.90
2018-12-19T06:07:37.845Z,53.20
2018-12-19T06:10:05.905Z,48.58
2018-12-19T06:12:33.874Z,53.38
2018-12-19T06:15:01.899Z,53.05
2018-12-19T06:17:29.882Z,61.18
2018-12-19T06:19:57.894Z,64.72
2018-12-19T06:22:25.841Z,48.20
2018-12-19T06:24:53.877Z,56.83
2018-12-19T06:27:21.815Z,55.03
2018-12-19T06:29:49.815Z,58.55
2018-12-19T06:32:17.825Z,49.93
2018-12-19T06:34:47.649Z,54.10
2018-12-19T06:37:15.653Z,57.17
2018-12-19T06:39:50.517Z,47.10
2018-12-19T06:42:18.496Z,47.53
2018-12-19T06:44:46.503Z,53.00
2018-12-19T06:47:14.495Z,54.15
2018-12-19T06:49:42.580Z,54.58
2018-12-19T06:52:10.533Z,48.28
2018-12-19T06:54:38.751Z,47.10
2018-12-19T06:57:06.710Z,50.85
2018-12-19T06:59:34.626Z,47.80
2018-12-19T07:02:02.588Z,49.33
2018-12-19T07:04:30.537Z,46.10
2018-12-19T07:06:58.481Z,47.38
2018-12-19T07:09:26.435Z,40.80
2018-12-19T07:11:54.365Z,50.63
2018-12-19T07:14:22.323Z,48.23
2018-12-19T07:16:50.269Z,50.33
2018-12-19T07:19:18.183Z,55.12
2018-12-19T07:21:46.092Z,54.48
2018-12-19T07:24:14.050Z,50.80
2018-12-19T07:26:42.139Z,47.75
2018-12-19T07:29:10.107Z,45.55
2018-12-19T07:31:38.061Z,54.23
2018-12-19T07:34:06.019Z,48.05
2018-12-19T07:36:33.981Z,49.98
2018-12-19T07:39:02.034Z,43.90
2018-12-19T07:41:31.281Z,44.25
2018-12-19T07:43:59.208Z,48.70
2018-12-19T07:46:27.151Z,52.70
2018-12-19T07:48:55.044Z,48.38
2018-12-19T07:51:23.097Z,52.17
2018-12-19T07:53:51.022Z,56.50
2018-12-19T07:56:19.178Z,48.83
2018-12-19T07:58:47.106Z,51.02
2018-12-19T08:01:17.389Z,54.45
2018-12-19T08:03:45.435Z,64.27
2018-12-19T08:06:13.401Z,61.00
2018-12-19T08:08:41.341Z,63.83
2018-12-19T08:11:09.289Z,59.03
2018-12-19T08:13:37.239Z,61.80
2018-12-19T08:16:05.206Z,57.98
2018-12-19T08:18:33.138Z,70.10
2018-12-19T08:21:01.118Z,66.15
2018-12-19T08:23:29.124Z,66.00
2018-12-19T08:25:57.031Z,69.45
2018-12-19T08:28:32.041Z,65.62
2018-12-19T08:31:00.007Z,66.85
2018-12-19T08:33:27.974Z,64.37
2018-12-19T08:35:55.950Z,62.78
2018-12-19T08:38:25.023Z,66.33
2018-12-19T08:40:58.588Z,67.20
2018-12-19T08:43:22.922Z,65.30
2018-12-19T08:45:51.235Z,65.97
2018-12-19T08:48:19.164Z,71.90
2018-12-19T08:50:47.078Z,60.67
2018-12-19T08:53:15.050Z,59.50
2018-12-19T08:55:43.013Z,58.52
2018-12-19T08:58:11.061Z,60.12
2018-12-19T09:00:39.087Z,57.75
2018-12-19T09:03:07.037Z,63.65
2018-12-19T09:05:35.027Z,58.87
2018-12-19T09:08:02.990Z,56.65
2018-12-19T09:10:30.995Z,59.73
2018-12-19T09:12:58.974Z,67.55
2018-12-19T09:15:32.627Z,72.97
2018-12-19T09:18:00.574Z,63.52
2018-12-19T09:20:28.506Z,66.47
2018-12-19T09:22:56.502Z,64.82
2018-12-19T09:25:24.490Z,62.43
2018-12-19T09:27:52.402Z,72.20
2018-12-19T09:30:20.381Z,77.08
2018-12-19T09:32:48.575Z,63.33
2018-12-19T09:35:16.634Z,67.47
2018-12-19T09:37:44.612Z,66.75
2018-12-19T09:40:12.540Z,69.25
2018-12-19T09:42:40.526Z,58.80
2018-12-19T09:45:08.461Z,67.67
2018-12-19T09:47:36.505Z,62.98
2018-12-19T09:50:04.502Z,72.85
2018-12-19T09:52:32.403Z,69.53
2018-12-19T09:55:00.349Z,65.57
2018-12-19T09:57:28.448Z,75.87
2018-12-19T09:59:56.435Z,68.87
2018-12-19T10:02:24.438Z,73.52
2018-12-19T10:04:52.445Z,58.80
2018-12-19T10:07:20.421Z,69.87
2018-12-19T10:09:48.461Z,77.08
2018-12-19T10:12:16.426Z,69.40
2018-12-19T10:14:44.484Z,60.08
2018-12-19T10:17:12.427Z,68.62
2018-12-19T10:19:40.401Z,70.20
2018-12-19T10:22:08.446Z,58.50
2018-12-19T10:24:41.986Z,67.90
2018-12-19T10:27:11.965Z,58.42
2018-12-19T10:29:39.982Z,56.25
2018-12-19T10:32:07.979Z,69.05
2018-12-19T10:34:38.040Z,57.25
2018-12-19T10:37:07.503Z,61.02
2018-12-19T10:39:35.960Z,50.55
2018-12-19T10:42:04.016Z,57.05
2018-12-19T10:44:31.963Z,55.25
2018-12-19T10:46:59.907Z,55.70
2018-12-19T10:49:27.861Z,50.28
2018-12-19T10:51:55.880Z,57.30
2018-12-19T10:54:23.887Z,50.83
2018-12-19T10:56:51.946Z,48.08
2018-12-19T10:59:19.964Z,56.75
2018-12-19T11:01:48.083Z,55.50
2018-12-19T11:04:17.269Z,50.12
2018-12-19T11:06:45.206Z,51.20
2018-12-19T11:09:13.171Z,51.77
2018-12-19T11:11:41.131Z,43.92
2018-12-19T11:14:10.147Z,49.93
2018-12-19T11:16:38.105Z,55.63
2018-12-19T11:19:06.037Z,49.93
2018-12-19T11:21:34.060Z,48.33
2018-12-19T11:24:02.399Z,52.62
2018-12-19T11:26:30.479Z,54.30
2018-12-19T11:28:58.487Z,52.05
2018-12-19T11:31:26.471Z,57.03
2018-12-19T11:33:54.450Z,58.35
2018-12-19T11:36:22.489Z,49.70
2018-12-19T11:38:50.483Z,48.90
2018-12-19T11:41:18.395Z,43.83
2018-12-19T11:43:46.521Z,48.17
2018-12-19T11:46:14.485Z,45.58
2018-12-19T11:48:42.488Z,47.53
2018-12-19T11:51:10.564Z,45.30
2018-12-19T11:53:38.524Z,43.85
2018-12-19T11:56:06.603Z,45.38
2018-12-19T11:58:34.615Z,45.67
2018-12-19T12:01:02.670Z,40.88
2018-12-19T12:03:31.778Z,45.23
2018-12-19T12:05:59.779Z,41.73
2018-12-19T12:08:27.707Z,42.50
2018-12-19T12:11:02.884Z,52.85
2018-12-19T12:13:30.800Z,42.70
2018-12-19T12:15:58.756Z,46.53
2018-12-19T12:18:26.741Z,38.98
2018-12-19T12:20:54.686Z,43.13
2018-12-19T12:23:22.644Z,42.08
2018-12-19T12:25:50.607Z,36.85
2018-12-19T12:28:18.590Z,35.45
2018-12-19T12:30:46.587Z,37.15
2018-12-19T12:33:14.579Z,35.83
2018-12-19T12:35:43.049Z,38.45
2018-12-19T12:38:10.992Z,43.35
2018-12-19T12:40:38.937Z,34.70
2018-12-19T12:43:06.858Z,37.63
2018-12-19T12:45:34.853Z,30.92
2018-12-19T12:48:02.913Z,27.40
2018-12-19T12:50:32.009Z,36.68
2018-12-19T12:52:59.989Z,33.08
2018-12-19T12:55:27.971Z,37.10
2018-12-19T12:57:55.996Z,30.92
2018-12-19T13:00:23.925Z,32.80
2018-12-19T13:02:51.977Z,29.35
2018-12-19T13:05:21.969Z,31.20
2018-12-19T13:07:49.958Z,37.90
2018-12-19T13:10:17.927Z,31.62
2018-12-19T13:12:45.892Z,37.35
2018-12-19T13:15:18.344Z,32.55
2018-12-19T13:17:46.300Z,34.58
2018-12-19T13:20:14.238Z,30.27
2018-12-19T13:22:42.260Z,31.82
2018-12-19T13:25:10.206Z,38.38
2018-12-19T13:27:38.135Z,35.23
2018-12-19T13:30:07.393Z,43.15
2018-12-19T13:32:35.413Z,33.92
2018-12-19T13:35:03.508Z,29.35
2018-12-19T13:37:31.480Z,32.48
2018-12-19T13:39:59.390Z,37.75
2018-12-19T13:42:27.338Z,30.88
2018-12-19T13:44:56.433Z,32.55
2018-12-19T13:47:24.335Z,28.90
2018-12-19T13:49:52.318Z,39.18
2018-12-19T13:52:20.232Z,31.10
2018-12-19T13:54:48.184Z,31.73
2018-12-19T13:57:16.136Z,30.50
2018-12-19T13:59:44.097Z,36.35
2018-12-19T14:02:12.068Z,35.80
2018-12-19T14:04:40.295Z,32.80
2018-12-19T14:07:08.464Z,31.80
2018-12-19T14:09:36.402Z,32.88
2018-12-19T14:12:04.350Z,28.42
2018-12-19T14:14:32.335Z,29.72
2018-12-19T14:17:00.344Z,26.15
2018-12-19T14:19:28.333Z,28.55
2018-12-19T14:21:56.275Z,29.48
2018-12-19T14:24:24.215Z,30.72
2018-12-19T14:26:52.149Z,30.92
2018-12-19T14:29:20.118Z,30.30
2018-12-19T14:31:48.079Z,31.57
2018-12-19T14:34:16.061Z,34.08
2018-12-19T14:36:44.106Z,35.40
2018-12-19T14:39:12.081Z,33.35
2018-12-19T14:41:40.057Z,39.18
2018-12-19T14:44:08.053Z,39.10
2018-12-19T14:46:36.004Z,37.05
2018-12-19T14:49:03.977Z,37.65
2018-12-19T14:51:31.943Z,38.48
2018-12-19T14:53:59.941Z,37.85
2018-12-19T14:56:27.926Z,39.98
2018-12-19T14:58:55.914Z,37.45
2018-12-19T15:01:23.869Z,39.78
2018-12-19T15:03:51.857Z,46.98
2018-12-19T15:06:20.309Z,47.95
2018-12-19T15:08:48.331Z,49.40
2018-12-19T15:11:16.344Z,44.23
2018-12-19T15:13:44.313Z,39.25
2018-12-19T15:16:12.380Z,41.63
2018-12-19T15:18:40.314Z,44.08
2018-12-19T15:21:08.410Z,43.05
2018-12-19T15:23:37.411Z,43.48
2018-12-19T15:26:05.493Z,42.58
2018-12-19T15:28:33.462Z,42.90
2018-12-19T15:31:02.570Z,40.30
2018-12-19T15:33:30.571Z,37.80
2018-12-19T15:35:58.730Z,40.45
2018-12-19T15:38:26.692Z,37.05
2018-12-19T15:40:54.650Z,39.42
2018-12-19T15:43:22.615Z,50.65
2018-12-19T15:45:50.547Z,43.13
2018-12-19T15:48:18.550Z,42.15
2018-12-19T15:50:46.568Z,49.80
2018-12-19T15:53:14.521Z,42.70
2018-12-19T15:55:42.498Z,48.13
2018-12-19T15:58:10.428Z,41.77
2018-12-19T16:00:38.393Z,42.38
2018-12-19T16:03:07.474Z,41.18
2018-12-19T16:05:35.473Z,40.10
2018-12-19T16:08:03.630Z,48.25
2018-12-19T16:10:31.617Z,38.83
2018-12-19T16:12:59.567Z,42.55
2018-12-19T16:15:27.530Z,45.03
2018-12-19T16:17:55.517Z,36.80
2018-12-19T16:20:23.439Z,40.33
2018-12-19T16:22:51.433Z,42.10
2018-12-19T16:25:19.370Z,41.00
2018-12-19T16:27:54.249Z,39.10
2018-12-19T16:30:22.309Z,42.55
2018-12-19T16:32:50.249Z,38.08
2018-12-19T16:35:18.204Z,42.30
2018-12-19T16:37:46.176Z,51.37
2018-12-19T16:40:14.161Z,42.60
2018-12-19T16:42:46.067Z,50.00
2018-12-19T16:45:12.190Z,49.65
2018-12-19T16:47:40.167Z,41.48
2018-12-19T16:50:08.122Z,41.92
2018-12-19T16:52:36.097Z,39.63
2018-12-19T16:55:04.074Z,38.02
2018-12-19T16:57:32.095Z,40.75
2018-12-19T17:00:00.104Z,53.42
2018-12-19T17:02:28.101Z,39.75
2018-12-19T17:04:56.048Z,39.58
2018-12-19T17:07:23.979Z,34.67
2018-12-19T17:09:51.986Z,41.63
2018-12-19T17:12:19.980Z,42.58
2018-12-19T17:14:48.034Z,44.25
2018-12-19T17:17:16.045Z,41.05
2018-12-19T17:19:43.958Z,41.65
2018-12-19T17:22:13.707Z,41.28
2018-12-19T17:24:41.581Z,44.08
2018-12-19T17:27:12.404Z,45.73
2018-12-19T17:29:40.294Z,37.48
2018-12-19T17:32:09.294Z,37.40
2018-12-19T17:34:38.292Z,39.00
2018-12-19T17:37:06.860Z,42.60
2018-12-19T17:39:34.718Z,37.55
2018-12-19T17:42:02.644Z,40.10
2018-12-19T17:44:30.480Z,36.48
2018-12-19T17:46:58.360Z,44.60
2018-12-19T17:49:26.284Z,34.73
2018-12-19T17:51:56.212Z,41.08
2018-12-19T17:54:24.178Z,39.83
2018-12-19T17:56:52.078Z,35.08
2018-12-19T17:59:19.981Z,36.30
2018-12-19T18:01:47.895Z,46.35
2018-12-19T18:04:15.814Z,33.73
2018-12-19T18:06:43.690Z,35.48
2018-12-19T18:09:12.227Z,41.08
2018-12-19T18:11:40.317Z,37.00
2018-12-19T18:14:08.291Z,41.00
2018-12-19T18:16:36.334Z,35.98
2018-12-19T18:19:04.772Z,38.55
2018-12-19T18:21:32.848Z,39.70
2018-12-19T18:24:00.815Z,37.33
2018-12-19T18:26:28.728Z,42.35
2018-12-19T18:28:56.651Z,32.20
2018-12-19T18:31:24.563Z,36.38
2018-12-19T18:33:53.481Z,33.05
2018-12-19T18:36:21.410Z,41.88
2018-12-19T18:38:49.915Z,38.70
2018-12-19T18:41:17.941Z,39.58
2018-12-19T18:43:45.907Z,40.17
2018-12-19T18:46:13.823Z,36.30
2018-12-19T18:48:41.721Z,33.65
2018-12-19T18:51:09.543Z,40.50
2018-12-19T18:53:37.424Z,39.90
2018-12-19T18:56:05.377Z,42.35
2018-12-19T18:58:33.242Z,41.00
2018-12-19T19:01:01.160Z,35.45
2018-12-19T19:03:29.194Z,42.20
2018-12-19T19:05:57.154Z,39.65
2018-12-19T19:08:25.048Z,38.35
2018-12-19T19:10:52.982Z,42.83
2018-12-19T19:13:20.872Z,37.53
2018-12-19T19:15:48.733Z,41.33
2018-12-19T19:18:16.613Z,38.48
2018-12-19T19:20:44.492Z,42.80
2018-12-19T19:23:12.444Z,40.03
2018-12-19T19:25:40.353Z,45.00
2018-12-19T19:28:08.255Z,40.40
2018-12-19T19:30:36.251Z,44.50
2018-12-19T19:33:04.263Z,38.17
2018-12-19T19:35:32.319Z,46.37
2018-12-19T19:38:00.272Z,40.52
2018-12-19T19:40:28.143Z,45.33
2018-12-19T19:42:56.108Z,47.50
2018-12-19T19:45:24.130Z,42.27
2018-12-19T19:47:52.408Z,44.67
2018-12-19T19:50:21.500Z,40.92
2018-12-19T19:52:50.648Z,47.17
2018-12-19T19:55:18.752Z,52.98
2018-12-19T19:57:46.761Z,48.33
2018-12-19T20:00:16.813Z,40.38
2018-12-19T20:02:44.725Z,43.75
2018-12-19T20:05:12.651Z,37.93
2018-12-19T20:07:40.539Z,49.45
2018-12-19T20:10:08.556Z,43.80
2018-12-19T20:12:36.486Z,43.68
2018-12-19T20:15:05.081Z,43.13
2018-12-19T20:17:33.659Z,47.85
2018-12-19T20:20:01.602Z,49.00
2018-12-19T20:22:29.502Z,51.77
2018-12-19T20:24:57.422Z,51.68
2018-12-19T20:27:25.257Z,45.30
2018-12-19T20:29:54.077Z,50.52
2018-12-19T20:32:21.977Z,47.50
2018-12-19T20:34:49.885Z,54.93
2018-12-19T20:37:17.773Z,45.30
2018-12-19T20:39:45.615Z,51.65
2018-12-19T20:42:13.470Z,47.78
2018-12-19T20:44:42.365Z,45.50
2018-12-19T20:47:10.225Z,42.85
2018-12-19T20:49:38.149Z,44.63
2018-12-19T20:52:06.090Z,42.13
2018-12-19T20:54:34.006Z,45.23
2018-12-19T20:57:01.975Z,47.38
2018-12-19T20:59:29.975Z,42.48
2018-12-19T21:01:58.000Z,46.45
2018-12-19T21:04:25.908Z,44.20
2018-12-19T21:06:53.825Z,47.35
2018-12-19T21:09:21.926Z,40.33
2018-12-19T21:11:49.938Z,46.73
2018-12-19T21:14:17.854Z,47.65
2018-12-19T21:16:51.257Z,44.83
2018-12-19T21:19:19.205Z,38.13
2018-12-19T21:21:47.118Z,41.50
2018-12-19T21:24:15.099Z,40.88
2018-12-19T21:26:43.047Z,38.53
2018-12-19T21:29:10.919Z,39.05
2018-12-19T21:31:38.868Z,39.15
2018-12-19T21:34:06.709Z,47.10
2018-12-19T21:36:34.598Z,42.80
2018-12-19T21:39:03.282Z,39.67
2018-12-19T21:41:32.292Z,40.88
2018-12-19T21:44:00.220Z,44.83
2018-12-19T21:46:28.247Z,42.88
2018-12-19T21:48:56.319Z,44.98
2018-12-19T21:51:24.266Z,39.40
2018-12-19T21:53:52.643Z,41.35
2018-12-19T21:56:20.675Z,41.77
2018-12-19T21:58:48.610Z,37.30
2018-12-19T22:01:16.778Z,43.05
2018-12-19T22:03:44.726Z,48.40
2018-12-19T22:06:12.722Z,44.73
2018-12-19T22:08:40.724Z,36.83
2018-12-19T22:11:08.765Z,44.90
2018-12-19T22:13:36.887Z,46.13
2018-12-19T22:16:04.929Z,39.92
2018-12-19T22:18:38.402Z,38.20
2018-12-19T22:21:06.588Z,46.55
2018-12-19T22:23:34.611Z,46.28
2018-12-19T22:26:02.639Z,45.40
2018-12-19T22:28:30.853Z,42.00
2018-12-19T22:30:58.874Z,44.15
2018-12-19T22:33:26.811Z,46.18
2018-12-19T22:35:54.798Z,45.10
2018-12-19T22:38:22.730Z,43.40
2018-12-19T22:40:50.695Z,41.80
2018-12-19T22:43:18.680Z,40.15
2018-12-19T22:45:46.612Z,40.78
2018-12-19T22:48:14.584Z,48.10
2018-12-19T22:50:42.613Z,45.40
2018-12-19T22:53:10.687Z,40.90
2018-12-19T22:55:38.690Z,46.88
2018-12-19T22:58:06.696Z,42.67
2018-12-19T23:00:40.393Z,44.18
2018-12-19T23:03:08.488Z,44.60
2018-12-19T23:05:43.107Z,43.08
2018-12-19T23:08:11.175Z,45.63
2018-12-19T23:10:39.125Z,45.10
2018-12-19T23:13:07.181Z,47.38
2018-12-19T23:15:35.539Z,44.60
2018-12-19T23:18:15.503Z,44.20
2018-12-19T23:20:49.611Z,39.80
2018-12-19T23:23:23.548Z,41.83
2018-12-19T23:25:57.906Z,41.37
2018-12-19T23:28:28.069Z,46.02
2018-12-19T23:30:56.735Z,37.95
2018-12-19T23:33:24.783Z,44.98
2018-12-19T23:35:52.820Z,46.40
2018-12-19T23:38:21.006Z,40.10
2018-12-19T23:40:49.225Z,44.40
2018-12-19T23:43:18.453Z,40.78
2018-12-19T23:45:46.730Z,45.03
2018-12-19T23:48:14.686Z,38.33
2018-12-19T23:50:42.685Z,40.70
2018-12-19T23:53:10.914Z,35.52
2018-12-19T23:55:38.873Z,39.27
2018-12-19T23:58:08.011Z,43.02
